createdAt,value
2018-02-02T00:02:17.114Z,16.67
2018-02-02T00:04:45.132Z,14.80
2018-02-02T00:07:13.166Z,14.97
2018-02-02T00:09:41.063Z,15.60
2018-02-02T00:12:09.103Z,16.07
2018-02-02T00:14:36.993Z,16.13
2018-02-02T00:17:05.005Z,16.00
2018-02-02T00:19:33.771Z,16.43
2018-02-02T00:22:01.665Z,14.40
2018-02-02T00:24:30.290Z,15.57
2018-02-02T00:26:58.348Z,15.20
2018-02-02T00:29:26.242Z,16.20
2018-02-02T00:31:54.121Z,16.33
2018-02-02T00:34:22.133Z,15.53
2018-02-02T00:36:50.842Z,15.10
2018-02-02T00:39:18.745Z,14.50
2018-02-02T00:41:46.771Z,15.80
2018-02-02T00:44:14.686Z,13.73
2018-02-02T00:46:42.594Z,15.03
2018-02-02T00:49:11.397Z,14.00
2018-02-02T00:51:45.101Z,14.20
2018-02-02T00:54:13.040Z,14.23
2018-02-02T00:56:41.026Z,13.50
2018-02-02T00:59:09.646Z,14.10
2018-02-02T01:01:37.672Z,12.37
2018-02-02T01:04:06.295Z,11.57
2018-02-02T01:06:34.250Z,10.00
2018-02-02T01:09:02.346Z,10.60
2018-02-02T01:11:30.259Z,10.87
2018-02-02T01:13:58.150Z,10.63
2018-02-02T01:16:26.196Z,9.27
2018-02-02T01:18:54.216Z,8.73
2018-02-02T01:21:22.116Z,9.13
2018-02-02T01:23:50.130Z,9.47
2018-02-02T01:26:18.813Z,8.83
2018-02-02T01:28:47.449Z,9.13
2018-02-02T01:31:15.465Z,7.73
2018-02-02T01:33:43.333Z,7.63
2018-02-02T01:36:11.364Z,8.00
2018-02-02T01:38:39.410Z,8.60
2018-02-02T01:41:07.300Z,8.23
2018-02-02T01:43:35.208Z,8.00
2018-02-02T01:46:03.238Z,7.80
2018-02-02T01:48:31.199Z,8.13
2018-02-02T01:50:59.149Z,8.70
2018-02-02T01:53:28.042Z,8.13
2018-02-02T01:55:56.730Z,11.03
2018-02-02T01:58:25.373Z,12.43
2018-02-02T02:00:53.401Z,12.00
2018-02-02T02:03:21.298Z,16.20
2018-02-02T02:05:49.174Z,15.70
2018-02-02T02:08:17.190Z,14.47
2018-02-02T02:10:45.832Z,14.87
2018-02-02T02:13:13.733Z,15.17
2018-02-02T02:15:42.489Z,15.33
2018-02-02T02:18:10.429Z,15.43
2018-02-02T02:20:38.317Z,16.10
2018-02-02T02:23:06.351Z,15.30
2018-02-02T02:25:35.055Z,14.70
2018-02-02T02:28:02.946Z,14.67
2018-02-02T02:30:30.976Z,15.23
2018-02-02T02:32:59.614Z,16.10
2018-02-02T02:35:27.512Z,16.40
2018-02-02T02:37:56.304Z,17.47
2018-02-02T02:40:24.935Z,14.80
2018-02-02T02:42:52.818Z,15.93
2018-02-02T02:45:20.860Z,17.27
2018-02-02T02:47:48.792Z,16.20
2018-02-02T02:50:16.696Z,15.73
2018-02-02T02:52:44.736Z,17.17
2018-02-02T02:55:12.768Z,15.90
2018-02-02T03:10:44.980Z,19.63
2018-02-02T03:13:13.614Z,16.47
2018-02-02T03:15:41.498Z,17.97
2018-02-02T03:18:09.560Z,19.20
2018-02-02T03:20:38.385Z,17.97
2018-02-02T03:23:06.312Z,19.60
2018-02-02T03:25:34.336Z,17.47
2018-02-02T03:28:02.969Z,18.10
2018-02-02T03:30:30.863Z,19.40
2018-02-02T03:32:58.900Z,19.33
2018-02-02T03:35:26.808Z,19.47
2018-02-02T03:37:54.725Z,18.60
2018-02-02T03:40:22.771Z,20.40
2018-02-02T03:42:51.426Z,19.03
2018-02-02T03:45:19.333Z,19.60
2018-02-02T03:47:48.095Z,18.13
2018-02-02T03:50:16.137Z,21.03
2018-02-02T03:52:44.023Z,20.07
2018-02-02T03:55:12.080Z,21.40
2018-02-02T03:57:39.962Z,18.57
2018-02-02T04:00:07.909Z,17.73
2018-02-02T04:02:35.956Z,17.33
2018-02-02T04:05:04.752Z,18.43
2018-02-02T04:07:33.616Z,17.93
2018-02-02T04:10:01.689Z,17.17
2018-02-02T04:12:29.713Z,17.90
2018-02-02T04:14:57.633Z,16.80
2018-02-02T04:17:26.461Z,17.70
2018-02-02T04:19:54.434Z,17.00
2018-02-02T04:22:22.350Z,17.10
2018-02-02T04:24:50.388Z,18.37
2018-02-02T04:27:19.286Z,18.00
2018-02-02T04:29:47.218Z,17.57
2018-02-02T04:32:15.993Z,16.60
2018-02-02T04:34:49.641Z,16.73
2018-02-02T04:37:17.728Z,17.23
2018-02-02T04:39:45.651Z,17.60
2018-02-02T04:42:14.274Z,18.90
2018-02-02T04:44:42.158Z,17.80
2018-02-02T04:47:10.106Z,17.33
2018-02-02T04:49:38.024Z,17.03
2018-02-02T04:52:06.044Z,17.77
2018-02-02T04:54:33.929Z,18.43
2018-02-02T04:57:02.063Z,17.53
2018-02-02T04:59:30.074Z,17.23
2018-02-02T05:01:57.966Z,18.03
2018-02-02T05:04:25.985Z,16.17
2018-02-02T05:06:54.088Z,16.40
2018-02-02T05:09:22.044Z,16.43
2018-02-02T05:11:50.066Z,16.67
2018-02-02T05:14:18.860Z,15.23
2018-02-02T05:16:47.498Z,16.97
2018-02-02T05:19:15.533Z,15.33
2018-02-02T05:21:44.300Z,15.20
2018-02-02T05:24:12.196Z,15.83
2018-02-02T05:26:40.149Z,15.17
2018-02-02T05:29:08.922Z,14.57
2018-02-02T05:31:36.847Z,15.10
2018-02-02T05:34:04.734Z,14.87
2018-02-02T05:36:32.801Z,14.13
2018-02-02T05:39:00.708Z,13.87
2018-02-02T05:41:28.616Z,12.97
2018-02-02T05:43:56.656Z,12.67
2018-02-02T05:46:25.361Z,12.13
2018-02-02T05:48:53.996Z,13.17
2018-02-02T05:51:22.013Z,12.93
2018-02-02T05:53:49.936Z,11.70
2018-02-02T05:56:17.837Z,12.20
2018-02-02T05:58:46.768Z,10.57
2018-02-02T06:01:14.689Z,11.87
2018-02-02T06:03:42.622Z,12.13
2018-02-02T06:06:10.676Z,12.70
2018-02-02T06:08:38.582Z,12.00
2018-02-02T06:11:06.469Z,10.57
2018-02-02T06:13:34.504Z,11.43
2018-02-02T06:16:02.440Z,11.70
2018-02-02T06:18:31.063Z,10.87
2018-02-02T06:20:59.084Z,9.30
2018-02-02T06:23:27.732Z,9.77
2018-02-02T06:25:55.629Z,9.77
2018-02-02T06:28:23.672Z,9.70
2018-02-02T06:30:51.557Z,8.80
2018-02-02T06:33:19.464Z,9.43
2018-02-02T06:35:47.578Z,9.73
2018-02-02T06:38:18.244Z,10.20
2018-02-02T06:40:46.283Z,10.53
2018-02-02T06:43:17.161Z,9.67
2018-02-02T06:45:45.102Z,10.23
2018-02-02T06:48:16.044Z,8.47
2018-02-02T06:50:44.108Z,9.03
2018-02-02T06:53:11.994Z,9.80
2018-02-02T06:55:39.902Z,8.43
2018-02-02T06:58:08.084Z,8.50
2018-02-02T07:00:37.888Z,9.73
2018-02-02T07:03:12.678Z,8.60
2018-02-02T07:05:41.019Z,8.50
2018-02-02T07:08:08.943Z,9.13
2018-02-02T07:10:40.727Z,8.57
2018-02-02T07:13:09.784Z,8.77
2018-02-02T07:15:39.665Z,9.07
2018-02-02T07:18:07.950Z,8.47
2018-02-02T07:20:35.868Z,9.20
2018-02-02T07:23:04.938Z,9.83
2018-02-02T07:25:33.012Z,8.70
2018-02-02T07:28:04.594Z,9.00
2018-02-02T07:30:32.660Z,9.13
2018-02-02T07:33:01.821Z,8.73
2018-02-02T07:35:30.594Z,8.90
2018-02-02T07:37:58.512Z,9.90
2018-02-02T07:40:27.308Z,8.70
2018-02-02T07:42:56.858Z,9.43
2018-02-02T07:45:24.854Z,9.23
2018-02-02T07:47:52.895Z,8.10
2018-02-02T07:50:20.956Z,9.03
2018-02-02T07:52:48.888Z,7.40
2018-02-02T07:55:16.930Z,7.97
2018-02-02T07:57:44.837Z,8.27
2018-02-02T08:00:12.970Z,7.10
2018-02-02T08:02:41.248Z,7.37
2018-02-02T08:05:09.152Z,7.60
2018-02-02T08:07:37.149Z,8.70
2018-02-02T08:10:05.256Z,7.23
2018-02-02T08:12:33.161Z,7.47
2018-02-02T08:15:01.073Z,7.00
2018-02-02T08:17:29.170Z,8.13
2018-02-02T08:19:57.085Z,7.70
2018-02-02T08:22:25.745Z,7.90
2018-02-02T08:24:53.779Z,9.20
2018-02-02T08:27:21.768Z,8.13
2018-02-02T08:29:49.776Z,8.43
2018-02-02T08:32:17.808Z,9.00
2018-02-02T08:34:45.698Z,7.33
2018-02-02T08:37:13.622Z,8.37
2018-02-02T08:39:41.776Z,8.30
2018-02-02T08:42:10.423Z,8.17
2018-02-02T08:44:38.390Z,7.20
2018-02-02T08:47:06.528Z,7.30
2018-02-02T08:49:34.422Z,7.77
2018-02-02T08:52:02.318Z,7.90
2018-02-02T08:54:30.405Z,7.77
2018-02-02T08:56:58.408Z,7.90
2018-02-02T08:59:26.318Z,7.83
2018-02-02T09:02:00.062Z,7.40
2018-02-02T09:04:28.834Z,8.20
2018-02-02T09:06:56.830Z,7.90
2018-02-02T09:09:25.613Z,7.80
2018-02-02T09:11:54.253Z,7.97
2018-02-02T09:14:22.156Z,8.83
2018-02-02T09:16:50.285Z,8.57
2018-02-02T09:19:18.174Z,8.00
2018-02-02T09:21:53.679Z,7.80
2018-02-02T09:24:21.592Z,8.23
2018-02-02T09:26:49.762Z,7.60
2018-02-02T09:29:17.798Z,8.80
2018-02-02T09:31:45.689Z,8.40
2018-02-02T09:34:13.590Z,7.57
2018-02-02T09:36:41.718Z,7.43
2018-02-02T09:39:09.629Z,8.00
2018-02-02T09:41:37.532Z,7.87
2018-02-02T09:44:06.303Z,9.00
2018-02-02T09:46:34.283Z,8.60
2018-02-02T09:49:02.941Z,8.03
2018-02-02T09:51:30.982Z,7.40
2018-02-02T09:53:59.010Z,7.20
2018-02-02T09:56:28.597Z,8.43
2018-02-02T09:58:56.621Z,8.57
2018-02-02T10:01:24.525Z,8.40
2018-02-02T10:03:52.453Z,8.20
2018-02-02T10:06:20.609Z,8.13
2018-02-02T10:08:49.293Z,7.63
2018-02-02T10:11:17.930Z,8.00
2018-02-02T10:13:45.997Z,7.77
2018-02-02T10:16:13.905Z,7.60
2018-02-02T10:18:41.814Z,8.93
2018-02-02T10:21:09.830Z,8.63
2018-02-02T10:23:37.730Z,7.60
2018-02-02T10:26:06.372Z,9.27
2018-02-02T10:28:34.396Z,8.40
2018-02-02T10:31:03.022Z,8.40
2018-02-02T10:33:30.952Z,8.60
2018-02-02T10:35:58.973Z,8.40
2018-02-02T10:38:26.898Z,7.53
2018-02-02T10:40:55.554Z,8.13
2018-02-02T10:43:23.602Z,8.40
2018-02-02T10:45:51.541Z,9.03
2018-02-02T10:48:19.448Z,10.10
2018-02-02T10:50:47.480Z,9.40
2018-02-02T10:53:15.488Z,9.30
2018-02-02T10:55:43.371Z,9.50
2018-02-02T10:58:11.406Z,8.80
2018-02-02T11:00:45.051Z,8.73
2018-02-02T11:03:17.854Z,9.10
2018-02-02T11:05:46.482Z,9.30
2018-02-02T11:08:14.530Z,9.47
2018-02-02T11:10:42.584Z,9.63
2018-02-02T11:13:11.226Z,8.70
2018-02-02T11:15:39.124Z,9.70
2018-02-02T11:18:07.158Z,9.73
2018-02-02T11:20:35.052Z,9.23
2018-02-02T11:23:02.962Z,9.30
2018-02-02T11:25:31.733Z,9.57
2018-02-02T11:28:00.361Z,9.37
2018-02-02T11:30:28.258Z,8.63
2018-02-02T11:32:56.312Z,8.97
2018-02-02T11:35:24.386Z,9.90
2018-02-02T11:37:52.304Z,9.60
2018-02-02T11:40:21.071Z,9.67
2018-02-02T11:42:48.965Z,10.40
2018-02-02T11:45:17.600Z,10.10
2018-02-02T11:47:45.636Z,10.00
2018-02-02T11:50:14.292Z,10.47
2018-02-02T11:52:42.190Z,10.03
2018-02-02T11:55:10.982Z,10.87
2018-02-02T11:57:39.641Z,10.63
2018-02-02T12:00:08.320Z,10.57
2018-02-02T12:02:36.334Z,10.17
2018-02-02T12:05:04.248Z,10.37
2018-02-02T12:07:32.312Z,10.33
2018-02-02T12:10:00.500Z,10.20
2018-02-02T12:12:28.538Z,9.90
2018-02-02T12:14:56.582Z,9.90
2018-02-02T12:17:25.513Z,10.00
2018-02-02T12:19:53.544Z,11.13
2018-02-02T12:22:27.999Z,11.20
2018-02-02T12:25:16.663Z,10.73
2018-02-02T12:27:50.158Z,10.13
2018-02-02T12:30:23.752Z,9.53
2018-02-02T12:32:51.800Z,9.20
2018-02-02T12:35:22.384Z,10.00
2018-02-02T12:37:50.424Z,9.93
2018-02-02T12:40:18.576Z,9.83
2018-02-02T12:42:47.217Z,10.13
2018-02-02T12:45:15.133Z,10.57
2018-02-02T12:47:49.721Z,11.67
2018-02-02T12:50:17.845Z,10.17
2018-02-02T12:52:45.746Z,10.30
2018-02-02T12:55:13.886Z,9.10
2018-02-02T12:57:41.804Z,9.67
2018-02-02T13:00:09.720Z,9.17
2018-02-02T13:02:38.498Z,9.30
2018-02-02T13:05:07.122Z,8.27
2018-02-02T13:07:35.019Z,8.67
2018-02-02T13:10:03.222Z,8.97
2018-02-02T13:12:31.854Z,8.27
2018-02-02T13:14:59.829Z,8.70
2018-02-02T13:17:27.846Z,9.90
2018-02-02T13:19:56.509Z,9.90
2018-02-02T13:22:24.416Z,8.67
2018-02-02T13:24:53.188Z,8.90
2018-02-02T13:27:21.069Z,9.10
2018-02-02T13:29:49.838Z,8.37
2018-02-02T13:32:17.876Z,9.17
2018-02-02T13:34:45.768Z,9.57
2018-02-02T13:37:13.726Z,9.90
2018-02-02T13:39:41.768Z,9.57
2018-02-02T13:42:09.669Z,9.10
2018-02-02T13:44:37.546Z,9.87
2018-02-02T13:47:05.595Z,9.43
2018-02-02T13:49:33.538Z,9.63
2018-02-02T13:52:01.426Z,9.03
2018-02-02T13:54:29.551Z,10.00
2018-02-02T13:56:57.456Z,9.90
2018-02-02T13:59:25.350Z,9.87
2018-02-02T14:01:53.401Z,10.73
2018-02-02T14:04:21.286Z,10.30
2018-02-02T14:06:49.175Z,10.03
2018-02-02T14:09:17.219Z,11.13
2018-02-02T14:11:45.260Z,9.10
2018-02-02T14:14:13.894Z,9.87
2018-02-02T14:16:41.910Z,10.37
2018-02-02T14:19:10.556Z,10.00
2018-02-02T14:21:38.456Z,10.17
2018-02-02T14:24:06.488Z,10.60
2018-02-02T14:26:34.396Z,9.93
2018-02-02T14:29:02.274Z,9.70
2018-02-02T14:31:31.054Z,9.47
2018-02-02T14:33:59.042Z,10.53
2018-02-02T14:36:27.686Z,10.20
2018-02-02T14:38:55.708Z,9.33
2018-02-02T14:41:24.353Z,10.37
2018-02-02T14:43:52.261Z,10.40
2018-02-02T14:46:21.044Z,9.37
2018-02-02T14:48:49.708Z,10.00
2018-02-02T14:51:17.605Z,10.33
2018-02-02T14:53:46.366Z,10.60
2018-02-02T14:56:14.278Z,8.93
2018-02-02T14:58:42.150Z,9.40
2018-02-02T15:01:10.183Z,9.23
2018-02-02T15:03:38.844Z,10.20
2018-02-02T15:06:06.758Z,8.53
2018-02-02T15:08:35.542Z,8.87
2018-02-02T15:11:04.208Z,9.80
2018-02-02T15:13:32.273Z,10.00
2018-02-02T15:16:00.309Z,10.30
2018-02-02T15:18:28.232Z,10.27
2018-02-02T15:20:56.904Z,9.07
2018-02-02T15:23:39.658Z,10.20
2018-02-02T15:26:07.568Z,10.10
2018-02-02T15:28:35.470Z,10.90
2018-02-02T15:31:04.261Z,10.00
2018-02-02T15:33:32.912Z,10.13
2018-02-02T15:36:00.801Z,11.40
2018-02-02T15:38:28.822Z,11.37
2018-02-02T15:40:56.736Z,9.50
2018-02-02T15:43:24.630Z,10.10
2018-02-02T15:45:53.421Z,11.00
2018-02-02T15:48:22.046Z,12.53
2018-02-02T15:50:49.957Z,11.43
2018-02-02T15:53:17.995Z,11.67
2018-02-02T15:55:45.878Z,11.50
2018-02-02T15:58:13.763Z,9.70
2018-02-02T16:00:41.802Z,10.80
2018-02-02T16:03:09.706Z,11.63
2018-02-02T16:05:37.594Z,13.00
2018-02-02T16:08:06.384Z,14.90
2018-02-02T16:10:35.021Z,13.07
2018-02-02T16:13:02.936Z,12.47
2018-02-02T16:15:31.869Z,12.83
2018-02-02T16:17:59.770Z,10.43
2018-02-02T16:20:27.681Z,12.17
2018-02-02T16:22:56.445Z,12.33
2018-02-02T16:25:24.401Z,11.50
2018-02-02T16:27:52.298Z,10.80
2018-02-02T16:30:21.088Z,10.50
2018-02-02T16:32:49.749Z,10.80
2018-02-02T16:35:17.671Z,10.87
2018-02-02T16:37:45.830Z,11.67
2018-02-02T16:40:14.608Z,11.70
2018-02-02T16:42:43.241Z,13.20
2018-02-02T16:45:11.415Z,9.87
2018-02-02T16:47:39.330Z,10.77
2018-02-02T16:50:07.380Z,10.20
2018-02-02T16:52:35.406Z,11.30
2018-02-02T16:55:03.373Z,11.63
2018-02-02T16:57:31.393Z,12.33
2018-02-02T16:59:59.547Z,11.23
2018-02-02T17:02:27.433Z,10.97
2018-02-02T17:04:55.464Z,12.80
2018-02-02T17:07:23.621Z,12.70
2018-02-02T17:09:52.400Z,11.33
2018-02-02T17:12:21.157Z,10.37
2018-02-02T17:14:49.178Z,12.37
2018-02-02T17:17:17.960Z,11.37
2018-02-02T17:19:46.590Z,10.20
2018-02-02T17:22:14.606Z,12.23
2018-02-02T17:24:43.272Z,11.50
2018-02-02T17:27:11.180Z,11.70
2018-02-02T17:29:39.956Z,11.03
2018-02-02T17:32:08.586Z,10.93
2018-02-02T17:34:36.483Z,11.30
2018-02-02T17:37:04.521Z,12.30
2018-02-02T17:39:32.489Z,9.80
2018-02-02T17:42:00.401Z,11.33
2018-02-02T17:44:28.418Z,11.30
2018-02-02T17:46:56.298Z,10.93
2018-02-02T17:49:24.239Z,10.50
2018-02-02T17:51:53.018Z,9.40
2018-02-02T17:54:21.633Z,10.77
2018-02-02T17:56:49.742Z,11.67
2018-02-02T17:59:18.074Z,11.60
2018-02-02T18:02:02.216Z,11.33
2018-02-02T18:04:31.157Z,10.77
2018-02-02T18:06:59.508Z,11.13
2018-02-02T18:09:27.404Z,11.50
2018-02-02T18:11:55.452Z,11.80
2018-02-02T18:14:24.124Z,11.43
2018-02-02T18:16:52.928Z,11.43
2018-02-02T18:19:21.109Z,10.93
2018-02-02T18:21:49.168Z,10.63
2018-02-02T18:24:17.846Z,11.53
2018-02-02T18:26:45.983Z,11.70
2018-02-02T18:29:13.956Z,10.97
2018-02-02T18:31:42.893Z,11.07
2018-02-02T18:34:10.926Z,11.07
2018-02-02T18:36:40.291Z,12.37
2018-02-02T18:39:08.196Z,11.47
2018-02-02T18:41:36.094Z,11.20
2018-02-02T18:44:04.010Z,12.33
2018-02-02T18:46:31.973Z,11.23
2018-02-02T18:48:59.885Z,13.33
2018-02-02T18:51:28.548Z,12.77
2018-02-02T18:53:56.472Z,12.87
2018-02-02T18:56:24.493Z,12.83
2018-02-02T18:58:53.427Z,12.97
2018-02-02T19:01:21.319Z,12.77
2018-02-02T19:03:49.216Z,11.53
2018-02-02T19:06:17.184Z,11.40
2018-02-02T19:08:45.525Z,12.77
2018-02-02T19:11:13.448Z,11.97
2018-02-02T19:26:47.924Z,13.60
2018-02-02T19:29:16.619Z,14.53
2018-02-02T19:31:44.493Z,12.77
2018-02-02T19:34:12.660Z,14.70
2018-02-02T19:36:40.703Z,14.43
2018-02-02T19:39:09.453Z,14.80
2018-02-02T19:41:37.503Z,15.17
2018-02-02T19:44:05.396Z,13.50
2018-02-02T19:46:33.556Z,14.03
2018-02-02T19:49:01.600Z,14.20
2018-02-02T19:51:29.496Z,14.07
2018-02-02T19:53:57.408Z,13.70
2018-02-02T19:56:26.314Z,13.40
2018-02-02T19:58:54.352Z,14.13
2018-02-02T20:01:22.249Z,14.80
2018-02-02T20:03:51.002Z,15.20
2018-02-02T20:06:19.024Z,13.97
2018-02-02T20:08:46.992Z,14.70
2018-02-02T20:11:15.040Z,14.80
2018-02-02T20:13:43.684Z,14.83
2018-02-02T20:16:11.588Z,14.60
2018-02-02T20:18:40.376Z,16.27
2018-02-02T20:21:08.292Z,14.90
2018-02-02T20:23:36.189Z,14.27
2018-02-02T20:26:04.218Z,14.90
2018-02-02T20:28:32.245Z,14.70
2018-02-02T20:31:00.133Z,15.83
2018-02-02T20:33:29.010Z,14.93
2018-02-02T20:35:56.915Z,14.87
2018-02-02T20:38:24.824Z,16.13
2018-02-02T20:40:52.864Z,14.83
2018-02-02T20:43:20.746Z,14.50
2018-02-02T20:45:48.856Z,15.57
2018-02-02T20:48:16.889Z,14.00
2018-02-02T20:50:44.869Z,13.90
2018-02-02T20:53:12.766Z,14.93
2018-02-02T20:55:40.804Z,14.93
2018-02-02T20:58:09.485Z,13.47
2018-02-02T21:00:37.408Z,15.33
2018-02-02T21:03:05.496Z,14.10
2018-02-02T21:05:34.144Z,13.10
2018-02-02T21:08:02.085Z,15.37
2018-02-02T21:10:30.110Z,14.40
2018-02-02T21:12:57.982Z,14.67
2018-02-02T21:15:26.635Z,15.47
2018-02-02T21:17:54.662Z,14.67
2018-02-02T21:20:22.567Z,14.87
2018-02-02T21:22:50.457Z,13.37
2018-02-02T21:25:18.477Z,15.77
2018-02-02T21:27:46.473Z,13.47
2018-02-02T21:30:14.550Z,14.77
2018-02-02T21:32:42.572Z,13.90
2018-02-02T21:35:11.201Z,15.40
2018-02-02T21:37:39.172Z,14.07
2018-02-02T21:40:07.219Z,15.90
2018-02-02T21:42:35.898Z,15.97
2018-02-02T21:45:04.548Z,15.33
2018-02-02T22:00:38.768Z,15.80
2018-02-02T22:03:06.664Z,18.10
2018-02-02T22:05:35.300Z,15.43
2018-02-02T22:08:03.503Z,16.63
2018-02-02T22:10:31.411Z,17.07
2018-02-02T22:12:59.324Z,17.40
2018-02-02T22:15:27.454Z,17.10
2018-02-02T22:17:55.416Z,18.67
2018-02-02T22:20:23.324Z,16.93
2018-02-02T22:22:51.534Z,18.07
2018-02-02T22:25:20.414Z,18.63
2018-02-02T22:27:48.421Z,18.43
2018-02-02T22:30:16.593Z,18.60
2018-02-02T22:32:45.221Z,17.90
2018-02-02T22:35:13.118Z,16.70
2018-02-02T22:37:41.121Z,18.43
2018-02-02T22:40:09.768Z,18.03
2018-02-02T22:42:37.661Z,20.23
2018-02-02T22:45:06.482Z,19.13
2018-02-02T22:47:34.391Z,19.80
2018-02-02T22:50:02.305Z,19.17
2018-02-02T22:52:30.326Z,19.50
2018-02-02T22:54:58.239Z,18.30
2018-02-02T22:57:26.951Z,17.13
2018-02-02T22:59:54.969Z,17.47
2018-02-02T23:02:22.865Z,18.10
2018-02-02T23:04:51.494Z,19.60
2018-02-02T23:07:19.541Z,18.80
2018-02-02T23:09:47.444Z,18.60
2018-02-02T23:12:15.342Z,19.07
2018-02-02T23:14:43.356Z,18.40
2018-02-02T23:17:11.306Z,18.77
2018-02-02T23:19:39.937Z,19.23
2018-02-02T23:22:07.970Z,18.07
2018-02-02T23:24:35.866Z,19.07
2018-02-02T23:27:03.825Z,18.97
2018-02-02T23:29:31.846Z,19.73
2018-02-02T23:31:59.877Z,19.10
2018-02-02T23:34:27.789Z,18.80
2018-02-02T23:36:56.040Z,18.90
2018-02-02T23:39:23.918Z,18.80
2018-02-02T23:41:51.855Z,19.60
2018-02-02T23:44:19.878Z,18.43
2018-02-02T23:46:47.876Z,19.63
2018-02-02T23:49:16.490Z,18.27
2018-02-02T23:51:44.613Z,19.40
2018-02-02T23:54:12.502Z,19.90
2018-02-02T23:56:41.302Z,18.63
2018-02-02T23:59:09.314Z,18.40
